sensor_id;sensor_type;location;lat;lon;timestamp;temperature;humidity
72940;DHT22;61094;51.154;13.570;2022-10-24T00:01:13;14.20;99.90
72940;DHT22;61094;51.154;13.570;2022-10-24T00:03:40;14.10;99.90
72940;DHT22;61094;51.154;13.570;2022-10-24T00:06:09;14.10;99.90
72940;DHT22;61094;51.154;13.570;2022-10-24T00:08:36;14.10;99.90
72940;DHT22;61094;51.154;13.570;2022-10-24T00:11:08;14.10;99.90
72940;DHT22;61094;51.154;13.570;2022-10-24T00:13:37;14.00;99.90
72940;DHT22;61094;51.154;13.570;2022-10-24T00:16:04;14.00;99.90
72940;DHT22;61094;51.154;13.570;2022-10-24T00:18:31;14.00;99.90
72940;DHT22;61094;51.154;13.570;2022-10-24T00:20:57;14.00;99.90
72940;DHT22;61094;51.154;13.570;2022-10-24T00:23:24;13.90;99.90
72940;DHT22;61094;51.154;13.570;2022-10-24T00:25:51;13.90;99.90
72940;DHT22;61094;51.154;13.570;2022-10-24T00:28:18;13.90;99.90
72940;DHT22;61094;51.154;13.570;2022-10-24T00:30:49;13.90;99.90
72940;DHT22;61094;51.154;13.570;2022-10-24T00:33:16;13.90;99.90
72940;DHT22;61094;51.154;13.570;2022-10-24T00:35:43;13.80;99.90
72940;DHT22;61094;51.154;13.570;2022-10-24T00:38:09;13.80;99.90
72940;DHT22;61094;51.154;13.570;2022-10-24T00:40:36;13.80;99.90
72940;DHT22;61094;51.154;13.570;2022-10-24T00:43:03;13.80;99.90
72940;DHT22;61094;51.154;13.570;2022-10-24T00:45:40;13.70;99.90
72940;DHT22;61094;51.154;13.570;2022-10-24T00:48:16;13.70;99.90
72940;DHT22;61094;51.154;13.570;2022-10-24T00:50:45;13.70;99.90
72940;DHT22;61094;51.154;13.570;2022-10-24T00:53:13;13.60;99.90
72940;DHT22;61094;51.154;13.570;2022-10-24T00:55:40;13.70;99.90
72940;DHT22;61094;51.154;13.570;2022-10-24T00:58:08;13.60;99.90
72940;DHT22;61094;51.154;13.570;2022-10-24T01:00:35;13.60;99.90
72940;DHT22;61094;51.154;13.570;2022-10-24T01:03:02;13.60;99.90
72940;DHT22;61094;51.154;13.570;2022-10-24T01:05:36;13.60;99.90
72940;DHT22;61094;51.154;13.570;2022-10-24T01:08:11;13.60;99.90
72940;DHT22;61094;51.154;13.570;2022-10-24T01:10:49;13.60;99.90
72940;DHT22;61094;51.154;13.570;2022-10-24T01:13:24;13.60;99.90
72940;DHT22;61094;51.154;13.570;2022-10-24T01:15:59;13.60;99.90
72940;DHT22;61094;51.154;13.570;2022-10-24T01:18:32;13.60;99.90
72940;DHT22;61094;51.154;13.570;2022-10-24T01:21:15;13.60;99.90
72940;DHT22;61094;51.154;13.570;2022-10-24T01:24:19;13.50;99.90
72940;DHT22;61094;51.154;13.570;2022-10-24T01:27:05;13.50;99.90
72940;DHT22;61094;51.154;13.570;2022-10-24T01:29:48;13.50;99.90
72940;DHT22;61094;51.154;13.570;2022-10-24T01:32:23;13.50;99.90
72940;DHT22;61094;51.154;13.570;2022-10-24T01:34:58;13.60;99.90
72940;DHT22;61094;51.154;13.570;2022-10-24T01:37:31;13.60;99.90
72940;DHT22;61094;51.154;13.570;2022-10-24T01:40:05;13.60;99.90
72940;DHT22;61094;51.154;13.570;2022-10-24T01:42:35;13.50;99.90
72940;DHT22;61094;51.154;13.570;2022-10-24T01:45:07;13.50;99.90
72940;DHT22;61094;51.154;13.570;2022-10-24T01:47:39;13.50;99.90
72940;DHT22;61094;51.154;13.570;2022-10-24T01:50:10;13.50;99.90
72940;DHT22;61094;51.154;13.570;2022-10-24T01:52:40;13.50;99.90
72940;DHT22;61094;51.154;13.570;2022-10-24T01:55:08;13.60;99.90
72940;DHT22;61094;51.154;13.570;2022-10-24T01:57:35;13.50;99.90
72940;DHT22;61094;51.154;13.570;2022-10-24T02:00:06;13.60;99.90
72940;DHT22;61094;51.154;13.570;2022-10-24T02:02:36;13.60;99.90
72940;DHT22;61094;51.154;13.570;2022-10-24T02:05:08;13.60;99.90
72940;DHT22;61094;51.154;13.570;2022-10-24T02:07:37;13.60;99.90
72940;DHT22;61094;51.154;13.570;2022-10-24T02:10:06;13.60;99.90
72940;DHT22;61094;51.154;13.570;2022-10-24T02:12:36;13.60;99.90
72940;DHT22;61094;51.154;13.570;2022-10-24T02:15:11;13.60;99.90
72940;DHT22;61094;51.154;13.570;2022-10-24T02:17:39;13.60;99.90
72940;DHT22;61094;51.154;13.570;2022-10-24T02:20:07;13.50;99.90
72940;DHT22;61094;51.154;13.570;2022-10-24T02:22:41;13.60;99.90
72940;DHT22;61094;51.154;13.570;2022-10-24T02:25:16;13.60;99.90
72940;DHT22;61094;51.154;13.570;2022-10-24T02:27:47;13.50;99.90
72940;DHT22;61094;51.154;13.570;2022-10-24T02:30:19;13.50;99.90
72940;DHT22;61094;51.154;13.570;2022-10-24T02:32:49;13.50;99.90
72940;DHT22;61094;51.154;13.570;2022-10-24T02:35:18;13.50;99.90
72940;DHT22;61094;51.154;13.570;2022-10-24T02:37:49;13.50;99.90
72940;DHT22;61094;51.154;13.570;2022-10-24T02:40:18;13.40;99.90
72940;DHT22;61094;51.154;13.570;2022-10-24T02:42:47;13.40;99.90
72940;DHT22;61094;51.154;13.570;2022-10-24T02:45:17;13.40;99.90
72940;DHT22;61094;51.154;13.570;2022-10-24T02:47:45;13.40;99.90
72940;DHT22;61094;51.154;13.570;2022-10-24T02:50:13;13.30;99.90
72940;DHT22;61094;51.154;13.570;2022-10-24T02:52:40;13.30;99.90
72940;DHT22;61094;51.154;13.570;2022-10-24T02:55:08;13.30;99.90
72940;DHT22;61094;51.154;13.570;2022-10-24T02:57:36;13.20;99.90
72940;DHT22;61094;51.154;13.570;2022-10-24T03:00:04;13.30;99.90
72940;DHT22;61094;51.154;13.570;2022-10-24T03:02:32;13.20;99.90
72940;DHT22;61094;51.154;13.570;2022-10-24T03:04:59;13.20;99.90
72940;DHT22;61094;51.154;13.570;2022-10-24T03:07:26;13.20;99.90
72940;DHT22;61094;51.154;13.570;2022-10-24T03:09:52;13.20;99.90
72940;DHT22;61094;51.154;13.570;2022-10-24T03:12:19;13.10;99.90
72940;DHT22;61094;51.154;13.570;2022-10-24T03:14:46;13.10;99.90
72940;DHT22;61094;51.154;13.570;2022-10-24T03:17:12;13.10;99.90
72940;DHT22;61094;51.154;13.570;2022-10-24T03:19:40;13.10;99.90
72940;DHT22;61094;51.154;13.570;2022-10-24T03:22:07;13.10;99.90
72940;DHT22;61094;51.154;13.570;2022-10-24T03:24:34;13.10;99.90
72940;DHT22;61094;51.154;13.570;2022-10-24T03:27:00;13.10;99.90
72940;DHT22;61094;51.154;13.570;2022-10-24T03:29:27;13.10;99.90
72940;DHT22;61094;51.154;13.570;2022-10-24T03:31:54;13.00;99.90
72940;DHT22;61094;51.154;13.570;2022-10-24T03:34:20;13.10;99.90
72940;DHT22;61094;51.154;13.570;2022-10-24T03:36:48;13.10;99.90
72940;DHT22;61094;51.154;13.570;2022-10-24T03:39:15;13.10;99.90
72940;DHT22;61094;51.154;13.570;2022-10-24T03:41:42;13.10;99.90
72940;DHT22;61094;51.154;13.570;2022-10-24T03:44:08;13.10;99.90
72940;DHT22;61094;51.154;13.570;2022-10-24T03:46:35;13.00;99.90
72940;DHT22;61094;51.154;13.570;2022-10-24T03:49:02;13.00;99.90
72940;DHT22;61094;51.154;13.570;2022-10-24T03:51:29;13.00;99.90
72940;DHT22;61094;51.154;13.570;2022-10-24T03:53:57;12.90;99.90
72940;DHT22;61094;51.154;13.570;2022-10-24T03:56:23;12.90;99.90
72940;DHT22;61094;51.154;13.570;2022-10-24T03:58:50;12.90;99.90
72940;DHT22;61094;51.154;13.570;2022-10-24T04:01:17;12.90;99.90
72940;DHT22;61094;51.154;13.570;2022-10-24T04:03:44;12.90;99.90
72940;DHT22;61094;51.154;13.570;2022-10-24T04:06:12;12.90;99.90
72940;DHT22;61094;51.154;13.570;2022-10-24T04:08:39;12.90;99.90
72940;DHT22;61094;51.154;13.570;2022-10-24T04:11:07;12.90;99.90
72940;DHT22;61094;51.154;13.570;2022-10-24T04:13:34;12.80;99.90
72940;DHT22;61094;51.154;13.570;2022-10-24T04:16:01;12.80;99.90
72940;DHT22;61094;51.154;13.570;2022-10-24T04:18:28;12.80;99.90
72940;DHT22;61094;51.154;13.570;2022-10-24T04:20:54;12.80;99.90
72940;DHT22;61094;51.154;13.570;2022-10-24T04:23:21;12.80;99.90
72940;DHT22;61094;51.154;13.570;2022-10-24T04:25:48;12.80;99.90
72940;DHT22;61094;51.154;13.570;2022-10-24T04:28:16;12.80;99.90
72940;DHT22;61094;51.154;13.570;2022-10-24T04:30:43;12.90;99.90
72940;DHT22;61094;51.154;13.570;2022-10-24T04:33:09;12.90;99.90
72940;DHT22;61094;51.154;13.570;2022-10-24T04:35:36;12.90;99.90
72940;DHT22;61094;51.154;13.570;2022-10-24T04:38:03;12.90;99.90
72940;DHT22;61094;51.154;13.570;2022-10-24T04:40:30;12.90;99.90
72940;DHT22;61094;51.154;13.570;2022-10-24T04:42:56;12.90;99.90
72940;DHT22;61094;51.154;13.570;2022-10-24T04:45:24;13.00;99.90
72940;DHT22;61094;51.154;13.570;2022-10-24T04:47:51;13.00;99.90
72940;DHT22;61094;51.154;13.570;2022-10-24T04:50:18;13.10;99.90
72940;DHT22;61094;51.154;13.570;2022-10-24T04:52:44;13.30;99.90
72940;DHT22;61094;51.154;13.570;2022-10-24T04:55:11;13.30;99.90
72940;DHT22;61094;51.154;13.570;2022-10-24T04:57:38;13.40;99.90
72940;DHT22;61094;51.154;13.570;2022-10-24T05:00:06;13.40;99.90
72940;DHT22;61094;51.154;13.570;2022-10-24T05:02:34;13.50;99.90
72940;DHT22;61094;51.154;13.570;2022-10-24T05:05:01;13.70;99.90
72940;DHT22;61094;51.154;13.570;2022-10-24T05:07:27;13.70;99.90
72940;DHT22;61094;51.154;13.570;2022-10-24T05:09:54;13.80;99.90
72940;DHT22;61094;51.154;13.570;2022-10-24T05:12:21;13.90;99.90
72940;DHT22;61094;51.154;13.570;2022-10-24T05:14:47;13.90;99.90
72940;DHT22;61094;51.154;13.570;2022-10-24T05:17:14;14.00;99.90
72940;DHT22;61094;51.154;13.570;2022-10-24T05:19:42;14.10;99.90
72940;DHT22;61094;51.154;13.570;2022-10-24T05:22:09;14.20;99.90
72940;DHT22;61094;51.154;13.570;2022-10-24T05:24:35;14.30;99.90
72940;DHT22;61094;51.154;13.570;2022-10-24T05:27:02;14.30;99.90
72940;DHT22;61094;51.154;13.570;2022-10-24T05:29:29;14.40;99.90
72940;DHT22;61094;51.154;13.570;2022-10-24T05:31:56;14.40;99.90
72940;DHT22;61094;51.154;13.570;2022-10-24T05:34:22;14.40;99.90
72940;DHT22;61094;51.154;13.570;2022-10-24T05:36:50;14.40;99.90
72940;DHT22;61094;51.154;13.570;2022-10-24T05:39:17;14.50;99.90
72940;DHT22;61094;51.154;13.570;2022-10-24T05:41:44;14.50;99.90
72940;DHT22;61094;51.154;13.570;2022-10-24T05:44:11;14.60;99.90
72940;DHT22;61094;51.154;13.570;2022-10-24T05:46:38;14.60;99.90
72940;DHT22;61094;51.154;13.570;2022-10-24T05:49:04;14.70;99.90
72940;DHT22;61094;51.154;13.570;2022-10-24T05:51:31;14.70;99.90
72940;DHT22;61094;51.154;13.570;2022-10-24T05:53:59;14.80;99.90
72940;DHT22;61094;51.154;13.570;2022-10-24T05:56:26;14.80;99.90
72940;DHT22;61094;51.154;13.570;2022-10-24T05:58:55;14.90;99.90
72940;DHT22;61094;51.154;13.570;2022-10-24T06:01:22;15.00;99.90
72940;DHT22;61094;51.154;13.570;2022-10-24T06:03:48;15.00;99.90
72940;DHT22;61094;51.154;13.570;2022-10-24T06:06:15;15.10;99.90
72940;DHT22;61094;51.154;13.570;2022-10-24T06:08:42;15.10;99.90
72940;DHT22;61094;51.154;13.570;2022-10-24T06:11:10;15.20;99.90
72940;DHT22;61094;51.154;13.570;2022-10-24T06:13:37;15.30;99.90
72940;DHT22;61094;51.154;13.570;2022-10-24T06:16:05;15.40;99.90
72940;DHT22;61094;51.154;13.570;2022-10-24T06:18:32;15.50;99.90
72940;DHT22;61094;51.154;13.570;2022-10-24T06:20:59;15.50;99.90
72940;DHT22;61094;51.154;13.570;2022-10-24T06:23:26;15.60;99.90
72940;DHT22;61094;51.154;13.570;2022-10-24T06:25:53;15.70;99.90
72940;DHT22;61094;51.154;13.570;2022-10-24T06:28:21;15.70;99.30
72940;DHT22;61094;51.154;13.570;2022-10-24T06:30:49;15.80;99.90
72940;DHT22;61094;51.154;13.570;2022-10-24T06:33:16;15.80;98.90
72940;DHT22;61094;51.154;13.570;2022-10-24T06:35:42;15.90;99.90
72940;DHT22;61094;51.154;13.570;2022-10-24T06:38:09;15.90;99.90
72940;DHT22;61094;51.154;13.570;2022-10-24T06:40:36;16.00;99.90
72940;DHT22;61094;51.154;13.570;2022-10-24T06:43:05;16.00;99.90
72940;DHT22;61094;51.154;13.570;2022-10-24T06:45:33;16.00;99.30
72940;DHT22;61094;51.154;13.570;2022-10-24T06:47:59;16.10;99.90
72940;DHT22;61094;51.154;13.570;2022-10-24T06:50:26;16.20;99.90
72940;DHT22;61094;51.154;13.570;2022-10-24T06:52:53;16.10;98.30
72940;DHT22;61094;51.154;13.570;2022-10-24T06:55:20;16.20;97.20
72940;DHT22;61094;51.154;13.570;2022-10-24T06:57:46;16.20;99.90
72940;DHT22;61094;51.154;13.570;2022-10-24T07:00:13;16.20;99.20
72940;DHT22;61094;51.154;13.570;2022-10-24T07:02:41;16.10;97.60
72940;DHT22;61094;51.154;13.570;2022-10-24T07:05:08;16.20;99.90
72940;DHT22;61094;51.154;13.570;2022-10-24T07:07:37;16.10;99.90
72940;DHT22;61094;51.154;13.570;2022-10-24T07:10:06;16.10;99.90
72940;DHT22;61094;51.154;13.570;2022-10-24T07:12:33;16.00;99.90
72940;DHT22;61094;51.154;13.570;2022-10-24T07:15:00;16.00;99.80
72940;DHT22;61094;51.154;13.570;2022-10-24T07:17:28;16.00;99.90
72940;DHT22;61094;51.154;13.570;2022-10-24T07:19:56;16.00;98.90
72940;DHT22;61094;51.154;13.570;2022-10-24T07:22:23;16.00;99.90
72940;DHT22;61094;51.154;13.570;2022-10-24T07:24:51;16.10;98.70
72940;DHT22;61094;51.154;13.570;2022-10-24T07:27:18;16.10;99.90
72940;DHT22;61094;51.154;13.570;2022-10-24T07:29:45;16.20;99.90
72940;DHT22;61094;51.154;13.570;2022-10-24T07:32:12;16.20;99.90
72940;DHT22;61094;51.154;13.570;2022-10-24T07:34:39;16.30;98.30
72940;DHT22;61094;51.154;13.570;2022-10-24T07:37:07;16.30;99.00
72940;DHT22;61094;51.154;13.570;2022-10-24T07:39:34;16.30;99.90
72940;DHT22;61094;51.154;13.570;2022-10-24T07:42:01;16.40;98.70
72940;DHT22;61094;51.154;13.570;2022-10-24T07:44:28;16.40;99.90
72940;DHT22;61094;51.154;13.570;2022-10-24T07:46:55;16.50;99.90
72940;DHT22;61094;51.154;13.570;2022-10-24T07:49:22;16.50;99.40
72940;DHT22;61094;51.154;13.570;2022-10-24T07:51:49;16.60;99.90
72940;DHT22;61094;51.154;13.570;2022-10-24T07:54:17;16.70;99.90
72940;DHT22;61094;51.154;13.570;2022-10-24T07:56:43;16.80;98.50
72940;DHT22;61094;51.154;13.570;2022-10-24T07:59:10;17.00;99.10
72940;DHT22;61094;51.154;13.570;2022-10-24T08:01:37;17.10;97.40
72940;DHT22;61094;51.154;13.570;2022-10-24T08:04:03;17.20;99.80
72940;DHT22;61094;51.154;13.570;2022-10-24T08:06:31;17.30;98.80
72940;DHT22;61094;51.154;13.570;2022-10-24T08:08:57;17.30;99.00
72940;DHT22;61094;51.154;13.570;2022-10-24T08:11:27;17.40;99.90
72940;DHT22;61094;51.154;13.570;2022-10-24T08:13:54;17.40;98.10
72940;DHT22;61094;51.154;13.570;2022-10-24T08:16:23;17.40;99.40
72940;DHT22;61094;51.154;13.570;2022-10-24T08:18:51;17.40;99.90
72940;DHT22;61094;51.154;13.570;2022-10-24T08:21:20;17.40;99.10
72940;DHT22;61094;51.154;13.570;2022-10-24T08:23:49;17.30;99.90
72940;DHT22;61094;51.154;13.570;2022-10-24T08:26:17;17.30;99.90
72940;DHT22;61094;51.154;13.570;2022-10-24T08:28:45;17.30;96.50
72940;DHT22;61094;51.154;13.570;2022-10-24T08:31:13;17.30;98.80
72940;DHT22;61094;51.154;13.570;2022-10-24T08:33:41;17.30;98.60
72940;DHT22;61094;51.154;13.570;2022-10-24T08:36:14;17.40;97.10
72940;DHT22;61094;51.154;13.570;2022-10-24T08:38:41;17.50;96.10
72940;DHT22;61094;51.154;13.570;2022-10-24T08:41:09;17.60;97.70
72940;DHT22;61094;51.154;13.570;2022-10-24T08:43:41;17.80;95.70
72940;DHT22;61094;51.154;13.570;2022-10-24T08:46:19;17.90;99.60
72940;DHT22;61094;51.154;13.570;2022-10-24T08:48:52;18.00;97.40
72940;DHT22;61094;51.154;13.570;2022-10-24T08:51:37;18.10;98.80
72940;DHT22;61094;51.154;13.570;2022-10-24T08:54:10;18.20;95.90
72940;DHT22;61094;51.154;13.570;2022-10-24T08:56:38;18.20;99.70
72940;DHT22;61094;51.154;13.570;2022-10-24T08:59:05;18.30;99.30
72940;DHT22;61094;51.154;13.570;2022-10-24T09:01:41;18.20;97.90
72940;DHT22;61094;51.154;13.570;2022-10-24T09:04:12;18.30;99.90
72940;DHT22;61094;51.154;13.570;2022-10-24T09:06:40;18.40;99.80
72940;DHT22;61094;51.154;13.570;2022-10-24T09:09:14;18.40;98.60
72940;DHT22;61094;51.154;13.570;2022-10-24T09:11:45;18.40;95.20
72940;DHT22;61094;51.154;13.570;2022-10-24T09:14:15;18.50;96.60
72940;DHT22;61094;51.154;13.570;2022-10-24T09:16:45;18.50;93.00
72940;DHT22;61094;51.154;13.570;2022-10-24T09:19:16;18.60;99.40
72940;DHT22;61094;51.154;13.570;2022-10-24T09:21:44;18.60;99.80
72940;DHT22;61094;51.154;13.570;2022-10-24T09:24:30;18.70;98.80
72940;DHT22;61094;51.154;13.570;2022-10-24T09:26:57;18.80;98.10
72940;DHT22;61094;51.154;13.570;2022-10-24T09:29:30;18.90;97.40
72940;DHT22;61094;51.154;13.570;2022-10-24T09:31:59;19.00;98.20
72940;DHT22;61094;51.154;13.570;2022-10-24T09:34:26;19.10;98.90
72940;DHT22;61094;51.154;13.570;2022-10-24T09:36:53;19.40;99.00
72940;DHT22;61094;51.154;13.570;2022-10-24T09:39:26;19.80;96.50
72940;DHT22;61094;51.154;13.570;2022-10-24T09:41:54;20.20;93.50
72940;DHT22;61094;51.154;13.570;2022-10-24T09:44:30;20.50;97.10
72940;DHT22;61094;51.154;13.570;2022-10-24T09:46:58;20.80;95.70
72940;DHT22;61094;51.154;13.570;2022-10-24T09:49:32;20.90;81.20
72940;DHT22;61094;51.154;13.570;2022-10-24T09:52:02;21.00;85.90
72940;DHT22;61094;51.154;13.570;2022-10-24T09:54:31;21.10;91.30
72940;DHT22;61094;51.154;13.570;2022-10-24T09:57:03;21.10;90.80
72940;DHT22;61094;51.154;13.570;2022-10-24T09:59:34;21.00;93.90
72940;DHT22;61094;51.154;13.570;2022-10-24T10:02:14;20.90;94.80
72940;DHT22;61094;51.154;13.570;2022-10-24T10:04:44;20.70;94.00
72940;DHT22;61094;51.154;13.570;2022-10-24T10:07:13;20.50;94.90
72940;DHT22;61094;51.154;13.570;2022-10-24T10:09:48;20.40;93.20
72940;DHT22;61094;51.154;13.570;2022-10-24T10:12:27;20.30;81.90
72940;DHT22;61094;51.154;13.570;2022-10-24T10:14:54;20.20;92.50
72940;DHT22;61094;51.154;13.570;2022-10-24T10:17:25;20.10;97.30
72940;DHT22;61094;51.154;13.570;2022-10-24T10:23:26;19.90;91.00
72940;DHT22;61094;51.154;13.570;2022-10-24T10:26:06;19.80;96.70
72940;DHT22;61094;51.154;13.570;2022-10-24T10:28:34;19.70;92.80
72940;DHT22;61094;51.154;13.570;2022-10-24T10:31:01;19.70;98.20
72940;DHT22;61094;51.154;13.570;2022-10-24T10:33:35;19.60;96.90
72940;DHT22;61094;51.154;13.570;2022-10-24T10:36:10;19.60;97.30
72940;DHT22;61094;51.154;13.570;2022-10-24T10:38:44;19.50;99.60
72940;DHT22;61094;51.154;13.570;2022-10-24T10:41:19;19.50;94.60
72940;DHT22;61094;51.154;13.570;2022-10-24T10:43:53;19.40;98.10
72940;DHT22;61094;51.154;13.570;2022-10-24T10:46:28;19.30;98.70
72940;DHT22;61094;51.154;13.570;2022-10-24T10:49:04;19.30;98.70
72940;DHT22;61094;51.154;13.570;2022-10-24T10:51:40;19.20;97.60
72940;DHT22;61094;51.154;13.570;2022-10-24T10:54:16;19.20;93.20
72940;DHT22;61094;51.154;13.570;2022-10-24T10:56:50;19.10;98.00
72940;DHT22;61094;51.154;13.570;2022-10-24T10:59:32;19.10;97.20
72940;DHT22;61094;51.154;13.570;2022-10-24T11:02:18;19.10;95.80
72940;DHT22;61094;51.154;13.570;2022-10-24T11:04:55;19.00;98.90
72940;DHT22;61094;51.154;13.570;2022-10-24T11:07:29;19.00;99.70
72940;DHT22;61094;51.154;13.570;2022-10-24T11:09:59;19.00;99.80
72940;DHT22;61094;51.154;13.570;2022-10-24T11:12:31;19.00;99.80
72940;DHT22;61094;51.154;13.570;2022-10-24T11:15:03;19.10;99.70
72940;DHT22;61094;51.154;13.570;2022-10-24T11:17:38;19.00;99.90
72940;DHT22;61094;51.154;13.570;2022-10-24T11:20:16;19.10;99.90
72940;DHT22;61094;51.154;13.570;2022-10-24T11:22:47;19.10;99.80
72940;DHT22;61094;51.154;13.570;2022-10-24T11:25:22;19.10;99.90
72940;DHT22;61094;51.154;13.570;2022-10-24T11:27:56;19.10;99.30
72940;DHT22;61094;51.154;13.570;2022-10-24T11:30:37;19.20;99.40
72940;DHT22;61094;51.154;13.570;2022-10-24T11:33:08;19.20;91.40
72940;DHT22;61094;51.154;13.570;2022-10-24T11:35:41;19.20;99.60
72940;DHT22;61094;51.154;13.570;2022-10-24T11:38:14;19.20;99.80
72940;DHT22;61094;51.154;13.570;2022-10-24T11:40:42;19.30;99.70
72940;DHT22;61094;51.154;13.570;2022-10-24T11:43:15;19.30;99.70
72940;DHT22;61094;51.154;13.570;2022-10-24T11:45:47;19.30;99.40
72940;DHT22;61094;51.154;13.570;2022-10-24T11:48:19;19.30;99.60
72940;DHT22;61094;51.154;13.570;2022-10-24T11:54:16;19.30;98.00
72940;DHT22;61094;51.154;13.570;2022-10-24T11:56:47;19.30;99.10
72940;DHT22;61094;51.154;13.570;2022-10-24T11:59:17;19.30;98.60
72940;DHT22;61094;51.154;13.570;2022-10-24T12:05:18;19.20;98.20
72940;DHT22;61094;51.154;13.570;2022-10-24T12:08:11;19.20;98.70
72940;DHT22;61094;51.154;13.570;2022-10-24T12:11:04;19.20;84.20
72940;DHT22;61094;51.154;13.570;2022-10-24T12:13:43;19.20;98.20
72940;DHT22;61094;51.154;13.570;2022-10-24T12:16:18;19.20;97.80
72940;DHT22;61094;51.154;13.570;2022-10-24T12:18:50;19.20;96.60
72940;DHT22;61094;51.154;13.570;2022-10-24T12:21:21;19.10;96.90
72940;DHT22;61094;51.154;13.570;2022-10-24T12:23:53;19.10;96.90
72940;DHT22;61094;51.154;13.570;2022-10-24T12:26:25;19.10;97.50
72940;DHT22;61094;51.154;13.570;2022-10-24T12:28:53;19.10;91.40
72940;DHT22;61094;51.154;13.570;2022-10-24T12:31:26;19.20;97.10
72940;DHT22;61094;51.154;13.570;2022-10-24T12:34:39;19.20;97.10
72940;DHT22;61094;51.154;13.570;2022-10-24T12:37:29;19.20;92.90
72940;DHT22;61094;51.154;13.570;2022-10-24T12:39:57;19.20;91.70
72940;DHT22;61094;51.154;13.570;2022-10-24T12:45:31;19.20;95.90
72940;DHT22;61094;51.154;13.570;2022-10-24T12:48:34;19.30;94.10
72940;DHT22;61094;51.154;13.570;2022-10-24T12:51:04;19.30;95.40
72940;DHT22;61094;51.154;13.570;2022-10-24T12:53:37;19.30;95.90
72940;DHT22;61094;51.154;13.570;2022-10-24T12:56:13;19.30;94.90
72940;DHT22;61094;51.154;13.570;2022-10-24T12:58:42;19.30;95.80
72940;DHT22;61094;51.154;13.570;2022-10-24T13:01:22;19.30;93.30
72940;DHT22;61094;51.154;13.570;2022-10-24T13:04:10;19.30;95.00
72940;DHT22;61094;51.154;13.570;2022-10-24T13:06:52;19.30;83.50
72940;DHT22;61094;51.154;13.570;2022-10-24T13:09:29;19.30;92.00
72940;DHT22;61094;51.154;13.570;2022-10-24T13:12:08;19.40;94.30
72940;DHT22;61094;51.154;13.570;2022-10-24T13:14:53;19.30;94.80
72940;DHT22;61094;51.154;13.570;2022-10-24T13:17:34;19.30;94.50
72940;DHT22;61094;51.154;13.570;2022-10-24T13:20:05;19.30;91.30
72940;DHT22;61094;51.154;13.570;2022-10-24T13:22:40;19.40;93.70
72940;DHT22;61094;51.154;13.570;2022-10-24T13:25:26;19.30;94.30
72940;DHT22;61094;51.154;13.570;2022-10-24T13:31:39;19.40;94.20
72940;DHT22;61094;51.154;13.570;2022-10-24T13:34:16;19.30;84.90
72940;DHT22;61094;51.154;13.570;2022-10-24T13:36:43;19.30;83.30
72940;DHT22;61094;51.154;13.570;2022-10-24T13:39:15;19.30;93.50
72940;DHT22;61094;51.154;13.570;2022-10-24T13:41:44;19.30;91.20
72940;DHT22;61094;51.154;13.570;2022-10-24T13:44:19;19.30;93.10
72940;DHT22;61094;51.154;13.570;2022-10-24T13:46:49;19.20;91.40
72940;DHT22;61094;51.154;13.570;2022-10-24T13:49:24;19.30;93.00
72940;DHT22;61094;51.154;13.570;2022-10-24T13:51:54;19.30;90.90
72940;DHT22;61094;51.154;13.570;2022-10-24T13:54:25;19.20;92.10
72940;DHT22;61094;51.154;13.570;2022-10-24T13:56:52;19.20;84.90
72940;DHT22;61094;51.154;13.570;2022-10-24T13:59:37;19.20;90.20
72940;DHT22;61094;51.154;13.570;2022-10-24T14:02:05;19.20;87.10
72940;DHT22;61094;51.154;13.570;2022-10-24T14:04:34;19.20;88.30
72940;DHT22;61094;51.154;13.570;2022-10-24T14:07:03;19.20;90.30
72940;DHT22;61094;51.154;13.570;2022-10-24T14:09:30;19.20;89.20
72940;DHT22;61094;51.154;13.570;2022-10-24T14:12:04;19.20;82.70
72940;DHT22;61094;51.154;13.570;2022-10-24T14:14:34;19.20;83.30
72940;DHT22;61094;51.154;13.570;2022-10-24T14:17:18;19.20;79.70
72940;DHT22;61094;51.154;13.570;2022-10-24T14:19:52;19.10;87.20
72940;DHT22;61094;51.154;13.570;2022-10-24T14:22:20;19.20;90.00
72940;DHT22;61094;51.154;13.570;2022-10-24T14:24:48;19.10;90.20
72940;DHT22;61094;51.154;13.570;2022-10-24T14:27:15;19.10;89.70
72940;DHT22;61094;51.154;13.570;2022-10-24T14:29:57;19.10;90.00
72940;DHT22;61094;51.154;13.570;2022-10-24T14:32:25;19.10;81.70
72940;DHT22;61094;51.154;13.570;2022-10-24T14:34:55;19.10;91.10
72940;DHT22;61094;51.154;13.570;2022-10-24T14:37:27;19.00;90.40
72940;DHT22;61094;51.154;13.570;2022-10-24T14:39:54;19.00;90.20
72940;DHT22;61094;51.154;13.570;2022-10-24T14:42:21;19.00;90.10
72940;DHT22;61094;51.154;13.570;2022-10-24T14:44:48;19.00;90.10
72940;DHT22;61094;51.154;13.570;2022-10-24T14:47:25;19.00;77.20
72940;DHT22;61094;51.154;13.570;2022-10-24T14:49:54;18.90;86.90
72940;DHT22;61094;51.154;13.570;2022-10-24T14:52:23;18.90;86.10
72940;DHT22;61094;51.154;13.570;2022-10-24T14:54:54;18.90;88.60
72940;DHT22;61094;51.154;13.570;2022-10-24T14:57:24;18.90;85.10
72940;DHT22;61094;51.154;13.570;2022-10-24T14:59:52;18.80;80.80
72940;DHT22;61094;51.154;13.570;2022-10-24T15:02:23;18.80;87.20
72940;DHT22;61094;51.154;13.570;2022-10-24T15:04:51;18.70;87.00
72940;DHT22;61094;51.154;13.570;2022-10-24T15:07:32;18.70;87.60
72940;DHT22;61094;51.154;13.570;2022-10-24T15:10:20;18.70;78.60
72940;DHT22;61094;51.154;13.570;2022-10-24T15:12:52;18.60;81.90
72940;DHT22;61094;51.154;13.570;2022-10-24T15:15:24;18.60;90.10
72940;DHT22;61094;51.154;13.570;2022-10-24T15:17:52;18.60;88.20
72940;DHT22;61094;51.154;13.570;2022-10-24T15:20:24;18.50;87.40
72940;DHT22;61094;51.154;13.570;2022-10-24T15:22:56;18.50;81.90
72940;DHT22;61094;51.154;13.570;2022-10-24T15:25:24;18.40;85.40
72940;DHT22;61094;51.154;13.570;2022-10-24T15:27:53;18.40;84.30
72940;DHT22;61094;51.154;13.570;2022-10-24T15:30:25;18.40;85.30
72940;DHT22;61094;51.154;13.570;2022-10-24T15:32:53;18.30;80.70
72940;DHT22;61094;51.154;13.570;2022-10-24T15:35:20;18.30;81.60
72940;DHT22;61094;51.154;13.570;2022-10-24T15:37:53;18.30;87.40
72940;DHT22;61094;51.154;13.570;2022-10-24T15:40:23;18.30;81.70
72940;DHT22;61094;51.154;13.570;2022-10-24T15:42:50;18.20;82.90
72940;DHT22;61094;51.154;13.570;2022-10-24T15:45:17;18.20;86.60
72940;DHT22;61094;51.154;13.570;2022-10-24T15:47:44;18.10;89.70
72940;DHT22;61094;51.154;13.570;2022-10-24T15:50:13;18.10;88.30
72940;DHT22;61094;51.154;13.570;2022-10-24T15:52:41;18.10;87.70